sensor_id;sensor_type;location;lat;lon;timestamp;temperature;humidity
74657;DHT22;63185;45.642;13.764;2023-03-15T00:01:19;14.30;59.10
74657;DHT22;63185;45.642;13.764;2023-03-15T00:03:46;14.50;60.00
74657;DHT22;63185;45.642;13.764;2023-03-15T00:06:13;14.40;59.80
74657;DHT22;63185;45.642;13.764;2023-03-15T00:08:39;14.50;59.90
74657;DHT22;63185;45.642;13.764;2023-03-15T00:11:05;14.50;60.60
74657;DHT22;63185;45.642;13.764;2023-03-15T00:13:31;14.40;60.10
74657;DHT22;63185;45.642;13.764;2023-03-15T00:15:59;14.40;60.20
74657;DHT22;63185;45.642;13.764;2023-03-15T00:18:26;14.40;59.60
74657;DHT22;63185;45.642;13.764;2023-03-15T00:20:52;14.50;59.70
74657;DHT22;63185;45.642;13.764;2023-03-15T00:23:17;14.40;61.00
74657;DHT22;63185;45.642;13.764;2023-03-15T00:25:47;14.40;61.90
74657;DHT22;63185;45.642;13.764;2023-03-15T00:28:13;14.40;61.30
74657;DHT22;63185;45.642;13.764;2023-03-15T00:30:39;14.40;61.50
74657;DHT22;63185;45.642;13.764;2023-03-15T00:33:04;14.40;61.90
74657;DHT22;63185;45.642;13.764;2023-03-15T00:35:31;14.40;62.70
74657;DHT22;63185;45.642;13.764;2023-03-15T00:37:58;14.40;62.30
74657;DHT22;63185;45.642;13.764;2023-03-15T00:40:24;14.30;62.40
74657;DHT22;63185;45.642;13.764;2023-03-15T00:42:51;14.30;63.90
74657;DHT22;63185;45.642;13.764;2023-03-15T00:45:18;14.30;63.80
74657;DHT22;63185;45.642;13.764;2023-03-15T00:47:47;14.30;63.90
74657;DHT22;63185;45.642;13.764;2023-03-15T00:50:12;14.20;64.40
74657;DHT22;63185;45.642;13.764;2023-03-15T00:52:38;14.20;63.50
74657;DHT22;63185;45.642;13.764;2023-03-15T00:55:04;14.20;64.00
74657;DHT22;63185;45.642;13.764;2023-03-15T00:57:32;14.20;64.80
74657;DHT22;63185;45.642;13.764;2023-03-15T00:59:58;14.30;64.20
74657;DHT22;63185;45.642;13.764;2023-03-15T01:02:24;14.30;64.70
74657;DHT22;63185;45.642;13.764;2023-03-15T01:04:50;14.30;64.00
74657;DHT22;63185;45.642;13.764;2023-03-15T01:07:16;14.30;65.20
74657;DHT22;63185;45.642;13.764;2023-03-15T01:09:42;14.30;64.60
74657;DHT22;63185;45.642;13.764;2023-03-15T01:12:09;14.30;64.70
74657;DHT22;63185;45.642;13.764;2023-03-15T01:14:35;14.30;63.80
74657;DHT22;63185;45.642;13.764;2023-03-15T01:17:02;14.30;64.40
74657;DHT22;63185;45.642;13.764;2023-03-15T01:19:27;14.30;63.60
74657;DHT22;63185;45.642;13.764;2023-03-15T01:21:53;14.30;63.30
74657;DHT22;63185;45.642;13.764;2023-03-15T01:24:19;14.30;62.40
74657;DHT22;63185;45.642;13.764;2023-03-15T01:26:45;14.40;62.10
74657;DHT22;63185;45.642;13.764;2023-03-15T01:29:10;14.40;62.10
74657;DHT22;63185;45.642;13.764;2023-03-15T01:31:38;14.40;61.80
74657;DHT22;63185;45.642;13.764;2023-03-15T01:34:03;14.40;62.40
74657;DHT22;63185;45.642;13.764;2023-03-15T01:36:29;14.40;62.70
74657;DHT22;63185;45.642;13.764;2023-03-15T01:38:55;14.50;62.00
74657;DHT22;63185;45.642;13.764;2023-03-15T01:41:22;14.40;61.20
74657;DHT22;63185;45.642;13.764;2023-03-15T01:43:49;14.40;61.70
74657;DHT22;63185;45.642;13.764;2023-03-15T01:46:33;14.40;61.10
74657;DHT22;63185;45.642;13.764;2023-03-15T01:52:09;14.40;60.40
74657;DHT22;63185;45.642;13.764;2023-03-15T01:54:51;14.40;60.10
74657;DHT22;63185;45.642;13.764;2023-03-15T01:57:45;14.30;59.70
74657;DHT22;63185;45.642;13.764;2023-03-15T02:00:15;14.40;59.80
74657;DHT22;63185;45.642;13.764;2023-03-15T02:02:49;14.40;59.30
74657;DHT22;63185;45.642;13.764;2023-03-15T02:05:23;14.40;59.60
74657;DHT22;63185;45.642;13.764;2023-03-15T02:07:49;14.40;59.70
74657;DHT22;63185;45.642;13.764;2023-03-15T02:10:24;14.40;59.30
74657;DHT22;63185;45.642;13.764;2023-03-15T02:12:52;14.40;57.70
74657;DHT22;63185;45.642;13.764;2023-03-15T02:15:20;14.40;56.80
74657;DHT22;63185;45.642;13.764;2023-03-15T02:17:46;14.40;56.70
74657;DHT22;63185;45.642;13.764;2023-03-15T02:20:37;14.40;56.10
74657;DHT22;63185;45.642;13.764;2023-03-15T02:23:07;14.50;56.40
74657;DHT22;63185;45.642;13.764;2023-03-15T02:28:21;14.50;57.60
74657;DHT22;63185;45.642;13.764;2023-03-15T02:30:47;14.40;57.40
74657;DHT22;63185;45.642;13.764;2023-03-15T02:33:27;14.40;55.10
74657;DHT22;63185;45.642;13.764;2023-03-15T02:35:55;14.40;56.20
74657;DHT22;63185;45.642;13.764;2023-03-15T02:38:21;14.40;56.50
74657;DHT22;63185;45.642;13.764;2023-03-15T02:40:48;14.30;56.60
74657;DHT22;63185;45.642;13.764;2023-03-15T02:43:19;14.20;56.00
74657;DHT22;63185;45.642;13.764;2023-03-15T02:45:46;14.20;55.70
74657;DHT22;63185;45.642;13.764;2023-03-15T02:48:13;14.30;55.50
74657;DHT22;63185;45.642;13.764;2023-03-15T02:50:40;14.20;54.40
74657;DHT22;63185;45.642;13.764;2023-03-15T02:53:05;14.20;54.50
74657;DHT22;63185;45.642;13.764;2023-03-15T02:55:31;14.20;54.30
74657;DHT22;63185;45.642;13.764;2023-03-15T02:57:58;14.20;53.90
74657;DHT22;63185;45.642;13.764;2023-03-15T03:00:24;14.20;53.60
74657;DHT22;63185;45.642;13.764;2023-03-15T03:02:50;14.20;53.40
74657;DHT22;63185;45.642;13.764;2023-03-15T03:05:16;14.20;53.00
74657;DHT22;63185;45.642;13.764;2023-03-15T03:07:42;14.20;52.20
74657;DHT22;63185;45.642;13.764;2023-03-15T03:10:10;14.20;51.70
74657;DHT22;63185;45.642;13.764;2023-03-15T03:12:35;14.20;51.50
74657;DHT22;63185;45.642;13.764;2023-03-15T03:15:01;14.30;50.90
74657;DHT22;63185;45.642;13.764;2023-03-15T03:17:29;14.30;50.50
74657;DHT22;63185;45.642;13.764;2023-03-15T03:19:55;14.30;50.80
74657;DHT22;63185;45.642;13.764;2023-03-15T03:22:21;14.30;49.00
74657;DHT22;63185;45.642;13.764;2023-03-15T03:24:50;14.40;49.80
74657;DHT22;63185;45.642;13.764;2023-03-15T03:27:17;14.30;49.60
74657;DHT22;63185;45.642;13.764;2023-03-15T03:29:43;14.30;49.10
74657;DHT22;63185;45.642;13.764;2023-03-15T03:32:09;14.40;49.60
74657;DHT22;63185;45.642;13.764;2023-03-15T03:34:35;14.30;49.40
74657;DHT22;63185;45.642;13.764;2023-03-15T03:37:02;14.30;48.50
74657;DHT22;63185;45.642;13.764;2023-03-15T03:39:27;14.30;49.00
74657;DHT22;63185;45.642;13.764;2023-03-15T03:41:54;14.30;49.10
74657;DHT22;63185;45.642;13.764;2023-03-15T03:44:20;14.20;49.20
74657;DHT22;63185;45.642;13.764;2023-03-15T03:46:45;14.20;49.70
74657;DHT22;63185;45.642;13.764;2023-03-15T03:49:11;14.20;49.30
74657;DHT22;63185;45.642;13.764;2023-03-15T03:51:39;14.10;47.90
74657;DHT22;63185;45.642;13.764;2023-03-15T03:54:06;14.20;47.80
74657;DHT22;63185;45.642;13.764;2023-03-15T03:56:31;14.20;47.90
74657;DHT22;63185;45.642;13.764;2023-03-15T03:58:57;14.20;47.90
74657;DHT22;63185;45.642;13.764;2023-03-15T04:01:23;14.20;45.20
74657;DHT22;63185;45.642;13.764;2023-03-15T04:03:49;14.20;46.20
74657;DHT22;63185;45.642;13.764;2023-03-15T04:06:15;14.30;46.30
74657;DHT22;63185;45.642;13.764;2023-03-15T04:08:41;14.20;47.20
74657;DHT22;63185;45.642;13.764;2023-03-15T04:11:07;14.20;47.10
74657;DHT22;63185;45.642;13.764;2023-03-15T04:13:33;14.10;45.90
74657;DHT22;63185;45.642;13.764;2023-03-15T04:15:58;14.10;45.90
74657;DHT22;63185;45.642;13.764;2023-03-15T04:18:26;14.10;45.20
74657;DHT22;63185;45.642;13.764;2023-03-15T04:20:52;14.10;46.00
74657;DHT22;63185;45.642;13.764;2023-03-15T04:23:22;13.90;45.40
74657;DHT22;63185;45.642;13.764;2023-03-15T04:25:49;14.00;46.80
74657;DHT22;63185;45.642;13.764;2023-03-15T04:28:16;13.90;47.90
74657;DHT22;63185;45.642;13.764;2023-03-15T04:30:44;13.90;47.00
74657;DHT22;63185;45.642;13.764;2023-03-15T04:33:10;13.80;48.60
74657;DHT22;63185;45.642;13.764;2023-03-15T04:35:37;13.70;49.00
74657;DHT22;63185;45.642;13.764;2023-03-15T04:38:04;13.60;48.40
74657;DHT22;63185;45.642;13.764;2023-03-15T04:40:31;13.60;50.10
74657;DHT22;63185;45.642;13.764;2023-03-15T04:43:01;13.40;50.30
74657;DHT22;63185;45.642;13.764;2023-03-15T04:45:28;13.40;51.10
74657;DHT22;63185;45.642;13.764;2023-03-15T04:47:56;13.30;50.40
74657;DHT22;63185;45.642;13.764;2023-03-15T04:50:22;13.20;52.00
74657;DHT22;63185;45.642;13.764;2023-03-15T04:52:49;13.10;52.80
74657;DHT22;63185;45.642;13.764;2023-03-15T04:55:15;13.10;53.40
74657;DHT22;63185;45.642;13.764;2023-03-15T04:57:41;12.90;54.00
74657;DHT22;63185;45.642;13.764;2023-03-15T05:00:08;13.00;55.20
74657;DHT22;63185;45.642;13.764;2023-03-15T05:02:38;12.80;54.70
74657;DHT22;63185;45.642;13.764;2023-03-15T05:05:09;12.80;55.20
74657;DHT22;63185;45.642;13.764;2023-03-15T05:07:35;12.90;55.40
74657;DHT22;63185;45.642;13.764;2023-03-15T05:10:02;12.90;55.30
74657;DHT22;63185;45.642;13.764;2023-03-15T05:12:28;12.60;55.40
74657;DHT22;63185;45.642;13.764;2023-03-15T05:14:53;12.60;55.10
74657;DHT22;63185;45.642;13.764;2023-03-15T05:17:19;12.50;55.30
74657;DHT22;63185;45.642;13.764;2023-03-15T05:19:49;12.60;55.50
74657;DHT22;63185;45.642;13.764;2023-03-15T05:22:16;12.40;56.10
74657;DHT22;63185;45.642;13.764;2023-03-15T05:24:42;12.50;56.60
74657;DHT22;63185;45.642;13.764;2023-03-15T05:27:08;12.50;55.90
74657;DHT22;63185;45.642;13.764;2023-03-15T05:29:34;12.40;55.90
74657;DHT22;63185;45.642;13.764;2023-03-15T05:31:59;12.30;55.30
74657;DHT22;63185;45.642;13.764;2023-03-15T05:34:29;12.30;56.00
74657;DHT22;63185;45.642;13.764;2023-03-15T05:36:57;12.20;55.80
74657;DHT22;63185;45.642;13.764;2023-03-15T05:39:23;12.20;55.30
74657;DHT22;63185;45.642;13.764;2023-03-15T05:41:49;12.20;55.90
74657;DHT22;63185;45.642;13.764;2023-03-15T05:44:15;12.30;55.50
74657;DHT22;63185;45.642;13.764;2023-03-15T05:46:41;12.20;54.40
74657;DHT22;63185;45.642;13.764;2023-03-15T05:49:07;12.20;53.20
74657;DHT22;63185;45.642;13.764;2023-03-15T05:51:33;12.20;53.70
74657;DHT22;63185;45.642;13.764;2023-03-15T05:53:59;12.20;54.30
74657;DHT22;63185;45.642;13.764;2023-03-15T05:56:24;12.20;53.80
74657;DHT22;63185;45.642;13.764;2023-03-15T05:58:50;12.20;54.40
74657;DHT22;63185;45.642;13.764;2023-03-15T06:01:16;12.20;54.60
74657;DHT22;63185;45.642;13.764;2023-03-15T06:03:42;12.10;54.20
74657;DHT22;63185;45.642;13.764;2023-03-15T06:06:08;12.10;52.70
74657;DHT22;63185;45.642;13.764;2023-03-15T06:08:33;12.10;53.60
74657;DHT22;63185;45.642;13.764;2023-03-15T06:10:59;12.10;53.80
74657;DHT22;63185;45.642;13.764;2023-03-15T06:13:25;12.20;54.70
74657;DHT22;63185;45.642;13.764;2023-03-15T06:15:50;12.10;54.50
74657;DHT22;63185;45.642;13.764;2023-03-15T06:18:16;12.10;53.70
74657;DHT22;63185;45.642;13.764;2023-03-15T06:20:42;12.20;54.30
74657;DHT22;63185;45.642;13.764;2023-03-15T06:23:09;12.10;52.50
74657;DHT22;63185;45.642;13.764;2023-03-15T06:25:34;12.20;52.20
74657;DHT22;63185;45.642;13.764;2023-03-15T06:28:00;12.20;54.60
74657;DHT22;63185;45.642;13.764;2023-03-15T06:30:26;12.30;54.90
74657;DHT22;63185;45.642;13.764;2023-03-15T06:32:53;12.20;54.30
74657;DHT22;63185;45.642;13.764;2023-03-15T06:35:19;12.10;55.80
74657;DHT22;63185;45.642;13.764;2023-03-15T06:37:45;12.10;55.90
74657;DHT22;63185;45.642;13.764;2023-03-15T06:40:13;12.10;55.50
74657;DHT22;63185;45.642;13.764;2023-03-15T06:42:39;12.10;56.00
74657;DHT22;63185;45.642;13.764;2023-03-15T06:45:07;12.10;56.60
74657;DHT22;63185;45.642;13.764;2023-03-15T06:47:34;12.00;55.80
74657;DHT22;63185;45.642;13.764;2023-03-15T06:50:00;12.00;55.30
74657;DHT22;63185;45.642;13.764;2023-03-15T06:52:25;11.90;55.10
74657;DHT22;63185;45.642;13.764;2023-03-15T06:54:51;11.90;55.30
74657;DHT22;63185;45.642;13.764;2023-03-15T06:57:17;11.90;56.00
74657;DHT22;63185;45.642;13.764;2023-03-15T06:59:42;11.80;55.40
74657;DHT22;63185;45.642;13.764;2023-03-15T07:02:16;11.80;55.80
74657;DHT22;63185;45.642;13.764;2023-03-15T07:04:42;11.90;53.10
74657;DHT22;63185;45.642;13.764;2023-03-15T07:07:11;12.00;53.40
74657;DHT22;63185;45.642;13.764;2023-03-15T07:09:37;12.00;52.60
74657;DHT22;63185;45.642;13.764;2023-03-15T07:12:03;12.00;53.60
74657;DHT22;63185;45.642;13.764;2023-03-15T07:14:29;12.00;53.10
74657;DHT22;63185;45.642;13.764;2023-03-15T07:16:55;11.90;53.30
74657;DHT22;63185;45.642;13.764;2023-03-15T07:19:21;12.00;53.90
74657;DHT22;63185;45.642;13.764;2023-03-15T07:21:47;12.00;54.00
74657;DHT22;63185;45.642;13.764;2023-03-15T07:24:12;12.10;53.60
74657;DHT22;63185;45.642;13.764;2023-03-15T07:26:38;12.10;53.30
74657;DHT22;63185;45.642;13.764;2023-03-15T07:29:04;12.10;53.50
74657;DHT22;63185;45.642;13.764;2023-03-15T07:31:29;12.10;53.60
74657;DHT22;63185;45.642;13.764;2023-03-15T07:33:55;12.10;53.20
74657;DHT22;63185;45.642;13.764;2023-03-15T07:36:21;12.10;54.00
74657;DHT22;63185;45.642;13.764;2023-03-15T07:38:47;12.20;53.10
74657;DHT22;63185;45.642;13.764;2023-03-15T07:41:12;12.20;53.50
74657;DHT22;63185;45.642;13.764;2023-03-15T07:43:38;12.20;53.70
74657;DHT22;63185;45.642;13.764;2023-03-15T07:46:04;12.30;53.50
74657;DHT22;63185;45.642;13.764;2023-03-15T07:48:31;12.40;53.10
74657;DHT22;63185;45.642;13.764;2023-03-15T07:50:56;12.50;53.00
74657;DHT22;63185;45.642;13.764;2023-03-15T07:53:22;12.50;52.80
74657;DHT22;63185;45.642;13.764;2023-03-15T07:55:48;12.60;52.80
74657;DHT22;63185;45.642;13.764;2023-03-15T07:58:14;12.60;53.60
74657;DHT22;63185;45.642;13.764;2023-03-15T08:00:40;12.60;53.00
74657;DHT22;63185;45.642;13.764;2023-03-15T08:03:06;12.70;52.30
74657;DHT22;63185;45.642;13.764;2023-03-15T08:05:33;12.70;52.20
74657;DHT22;63185;45.642;13.764;2023-03-15T08:07:59;12.60;52.70
74657;DHT22;63185;45.642;13.764;2023-03-15T08:10:25;12.60;53.20
74657;DHT22;63185;45.642;13.764;2023-03-15T08:12:51;12.80;53.10
74657;DHT22;63185;45.642;13.764;2023-03-15T08:15:18;12.90;52.80
74657;DHT22;63185;45.642;13.764;2023-03-15T08:17:46;12.80;53.00
74657;DHT22;63185;45.642;13.764;2023-03-15T08:20:12;12.90;52.80
74657;DHT22;63185;45.642;13.764;2023-03-15T08:22:45;12.80;52.20
74657;DHT22;63185;45.642;13.764;2023-03-15T08:25:13;12.80;53.70
74657;DHT22;63185;45.642;13.764;2023-03-15T08:27:40;12.90;53.00
74657;DHT22;63185;45.642;13.764;2023-03-15T08:30:07;12.80;53.50
74657;DHT22;63185;45.642;13.764;2023-03-15T08:32:33;12.90;53.00
74657;DHT22;63185;45.642;13.764;2023-03-15T08:34:59;12.90;53.10
74657;DHT22;63185;45.642;13.764;2023-03-15T08:37:25;12.90;53.10
74657;DHT22;63185;45.642;13.764;2023-03-15T08:39:51;13.00;53.00
74657;DHT22;63185;45.642;13.764;2023-03-15T08:42:25;13.10;53.20
74657;DHT22;63185;45.642;13.764;2023-03-15T08:44:51;13.00;52.60
74657;DHT22;63185;45.642;13.764;2023-03-15T08:47:17;13.00;52.00
74657;DHT22;63185;45.642;13.764;2023-03-15T08:49:42;12.90;52.50
74657;DHT22;63185;45.642;13.764;2023-03-15T08:52:08;12.90;51.10
74657;DHT22;63185;45.642;13.764;2023-03-15T08:54:34;12.90;51.00
74657;DHT22;63185;45.642;13.764;2023-03-15T08:56:59;12.70;51.10
74657;DHT22;63185;45.642;13.764;2023-03-15T08:59:25;12.80;51.30
74657;DHT22;63185;45.642;13.764;2023-03-15T09:01:51;12.90;49.10
74657;DHT22;63185;45.642;13.764;2023-03-15T09:04:16;12.80;49.40
74657;DHT22;63185;45.642;13.764;2023-03-15T09:06:42;12.80;49.50
74657;DHT22;63185;45.642;13.764;2023-03-15T09:09:07;12.70;49.60
74657;DHT22;63185;45.642;13.764;2023-03-15T09:11:33;12.80;50.20
74657;DHT22;63185;45.642;13.764;2023-03-15T09:13:59;12.90;49.60
74657;DHT22;63185;45.642;13.764;2023-03-15T09:16:24;13.10;49.90
74657;DHT22;63185;45.642;13.764;2023-03-15T09:18:50;13.10;48.00
74657;DHT22;63185;45.642;13.764;2023-03-15T09:21:16;13.20;48.30
74657;DHT22;63185;45.642;13.764;2023-03-15T09:23:41;13.30;47.80
74657;DHT22;63185;45.642;13.764;2023-03-15T09:26:07;13.30;47.20
74657;DHT22;63185;45.642;13.764;2023-03-15T09:28:33;13.30;45.90
74657;DHT22;63185;45.642;13.764;2023-03-15T09:31:03;13.40;46.40
74657;DHT22;63185;45.642;13.764;2023-03-15T09:33:28;13.40;46.90
74657;DHT22;63185;45.642;13.764;2023-03-15T09:35:57;13.50;47.80
74657;DHT22;63185;45.642;13.764;2023-03-15T09:38:23;13.60;45.50
74657;DHT22;63185;45.642;13.764;2023-03-15T09:40:49;13.60;45.70
74657;DHT22;63185;45.642;13.764;2023-03-15T09:48:20;13.70;45.10
74657;DHT22;63185;45.642;13.764;2023-03-15T09:51:00;13.70;44.10
74657;DHT22;63185;45.642;13.764;2023-03-15T09:53:31;13.80;44.30
74657;DHT22;63185;45.642;13.764;2023-03-15T09:56:00;14.10;43.30
74657;DHT22;63185;45.642;13.764;2023-03-15T09:58:30;14.20;43.30
74657;DHT22;63185;45.642;13.764;2023-03-15T10:01:04;14.20;42.50
74657;DHT22;63185;45.642;13.764;2023-03-15T10:03:41;14.30;43.20
74657;DHT22;63185;45.642;13.764;2023-03-15T10:06:18;14.30;42.30
74657;DHT22;63185;45.642;13.764;2023-03-15T10:08:45;14.40;41.50
74657;DHT22;63185;45.642;13.764;2023-03-15T10:11:13;14.50;42.10
74657;DHT22;63185;45.642;13.764;2023-03-15T10:16:44;14.20;42.80
74657;DHT22;63185;45.642;13.764;2023-03-15T10:24:36;14.40;41.70
74657;DHT22;63185;45.642;13.764;2023-03-15T10:30:21;14.40;40.90
74657;DHT22;63185;45.642;13.764;2023-03-15T10:35:19;14.60;41.20
74657;DHT22;63185;45.642;13.764;2023-03-15T10:37:47;14.60;41.40
74657;DHT22;63185;45.642;13.764;2023-03-15T10:40:14;14.60;41.30
74657;DHT22;63185;45.642;13.764;2023-03-15T10:42:45;14.90;40.40
74657;DHT22;63185;45.642;13.764;2023-03-15T10:45:23;15.00;41.00
74657;DHT22;63185;45.642;13.764;2023-03-15T10:47:50;15.10;40.70
74657;DHT22;63185;45.642;13.764;2023-03-15T10:50:31;15.10;40.40
74657;DHT22;63185;45.642;13.764;2023-03-15T10:52:59;15.00;39.00
74657;DHT22;63185;45.642;13.764;2023-03-15T10:55:31;15.10;40.50
74657;DHT22;63185;45.642;13.764;2023-03-15T10:58:11;15.10;39.20
74657;DHT22;63185;45.642;13.764;2023-03-15T11:00:36;14.80;38.80
74657;DHT22;63185;45.642;13.764;2023-03-15T11:03:05;14.70;39.30
74657;DHT22;63185;45.642;13.764;2023-03-15T11:05:43;14.80;40.40
74657;DHT22;63185;45.642;13.764;2023-03-15T11:08:14;14.90;40.10
74657;DHT22;63185;45.642;13.764;2023-03-15T11:10:41;15.00;39.80
74657;DHT22;63185;45.642;13.764;2023-03-15T11:13:29;15.00;39.70
74657;DHT22;63185;45.642;13.764;2023-03-15T11:18:54;14.90;38.70
74657;DHT22;63185;45.642;13.764;2023-03-15T11:21:29;14.90;37.90
74657;DHT22;63185;45.642;13.764;2023-03-15T11:23:59;14.90;36.80
74657;DHT22;63185;45.642;13.764;2023-03-15T11:26:27;15.00;37.50
74657;DHT22;63185;45.642;13.764;2023-03-15T11:29:16;15.10;36.20
74657;DHT22;63185;45.642;13.764;2023-03-15T11:31:45;15.40;34.50
74657;DHT22;63185;45.642;13.764;2023-03-15T11:34:15;15.50;32.80
74657;DHT22;63185;45.642;13.764;2023-03-15T11:36:46;15.60;33.60
74657;DHT22;63185;45.642;13.764;2023-03-15T11:39:14;15.80;35.50
74657;DHT22;63185;45.642;13.764;2023-03-15T11:41:51;15.80;32.10
74657;DHT22;63185;45.642;13.764;2023-03-15T11:49:57;16.10;31.60
74657;DHT22;63185;45.642;13.764;2023-03-15T11:52:28;16.30;31.50
74657;DHT22;63185;45.642;13.764;2023-03-15T11:54:57;16.40;29.90
74657;DHT22;63185;45.642;13.764;2023-03-15T11:57:44;16.50;30.60
74657;DHT22;63185;45.642;13.764;2023-03-15T12:00:48;16.50;29.50
74657;DHT22;63185;45.642;13.764;2023-03-15T12:03:32;16.40;29.90
74657;DHT22;63185;45.642;13.764;2023-03-15T12:08:50;16.00;25.60
74657;DHT22;63185;45.642;13.764;2023-03-15T12:16:21;16.40;24.90
74657;DHT22;63185;45.642;13.764;2023-03-15T12:18:48;16.40;24.80
74657;DHT22;63185;45.642;13.764;2023-03-15T12:21:30;16.40;23.50
74657;DHT22;63185;45.642;13.764;2023-03-15T12:23:59;16.50;23.30
74657;DHT22;63185;45.642;13.764;2023-03-15T12:26:45;16.70;23.00
74657;DHT22;63185;45.642;13.764;2023-03-15T12:29:26;16.90;22.30
74657;DHT22;63185;45.642;13.764;2023-03-15T12:40:01;16.60;22.10
74657;DHT22;63185;45.642;13.764;2023-03-15T12:44:53;16.30;22.60
74657;DHT22;63185;45.642;13.764;2023-03-15T12:47:19;16.40;22.70
74657;DHT22;63185;45.642;13.764;2023-03-15T12:49:45;16.60;23.80
74657;DHT22;63185;45.642;13.764;2023-03-15T12:55:00;16.50;21.90
74657;DHT22;63185;45.642;13.764;2023-03-15T12:57:34;16.50;21.20
74657;DHT22;63185;45.642;13.764;2023-03-15T13:00:13;16.20;21.40
74657;DHT22;63185;45.642;13.764;2023-03-15T13:02:49;16.20;21.70
74657;DHT22;63185;45.642;13.764;2023-03-15T13:19:26;15.80;22.60
74657;DHT22;63185;45.642;13.764;2023-03-15T13:22:26;15.90;22.30
74657;DHT22;63185;45.642;13.764;2023-03-15T13:25:07;15.90;22.30
74657;DHT22;63185;45.642;13.764;2023-03-15T13:27:53;15.60;21.20
74657;DHT22;63185;45.642;13.764;2023-03-15T13:30:48;15.70;21.80
74657;DHT22;63185;45.642;13.764;2023-03-15T13:33:27;15.90;21.90
74657;DHT22;63185;45.642;13.764;2023-03-15T13:36:13;16.10;22.40
74657;DHT22;63185;45.642;13.764;2023-03-15T13:38:44;16.00;22.20
74657;DHT22;63185;45.642;13.764;2023-03-15T13:41:17;15.90;21.80
74657;DHT22;63185;45.642;13.764;2023-03-15T13:43:44;16.00;22.00
74657;DHT22;63185;45.642;13.764;2023-03-15T13:46:10;16.10;25.40
74657;DHT22;63185;45.642;13.764;2023-03-15T13:48:42;15.30;41.00
74657;DHT22;63185;45.642;13.764;2023-03-15T13:51:31;15.00;42.30
74657;DHT22;63185;45.642;13.764;2023-03-15T13:54:07;15.10;42.80
74657;DHT22;63185;45.642;13.764;2023-03-15T13:56:37;14.60;45.00
74657;DHT22;63185;45.642;13.764;2023-03-15T13:59:11;14.50;45.30
74657;DHT22;63185;45.642;13.764;2023-03-15T14:01:38;14.80;45.30
74657;DHT22;63185;45.642;13.764;2023-03-15T14:04:11;14.50;46.60
74657;DHT22;63185;45.642;13.764;2023-03-15T14:06:38;14.20;50.70
74657;DHT22;63185;45.642;13.764;2023-03-15T14:09:26;14.10;54.10
74657;DHT22;63185;45.642;13.764;2023-03-15T14:12:01;14.40;53.60
74657;DHT22;63185;45.642;13.764;2023-03-15T14:14:28;14.10;56.50
74657;DHT22;63185;45.642;13.764;2023-03-15T14:16:57;13.80;56.40
74657;DHT22;63185;45.642;13.764;2023-03-15T14:19:34;13.90;57.10
74657;DHT22;63185;45.642;13.764;2023-03-15T14:22:10;13.70;57.60
74657;DHT22;63185;45.642;13.764;2023-03-15T14:24:42;13.70;56.00
74657;DHT22;63185;45.642;13.764;2023-03-15T14:27:15;14.10;52.60
74657;DHT22;63185;45.642;13.764;2023-03-15T14:29:50;14.20;50.90
74657;DHT22;63185;45.642;13.764;2023-03-15T14:32:32;14.20;53.80
74657;DHT22;63185;45.642;13.764;2023-03-15T14:35:28;14.30;50.70
74657;DHT22;63185;45.642;13.764;2023-03-15T14:38:07;14.40;47.10
74657;DHT22;63185;45.642;13.764;2023-03-15T14:40:35;14.30;48.80
74657;DHT22;63185;45.642;13.764;2023-03-15T14:43:02;14.40;49.60
74657;DHT22;63185;45.642;13.764;2023-03-15T14:45:32;14.50;48.70
74657;DHT22;63185;45.642;13.764;2023-03-15T14:47:59;14.60;51.20
74657;DHT22;63185;45.642;13.764;2023-03-15T14:50:29;14.90;50.00
74657;DHT22;63185;45.642;13.764;2023-03-15T14:52:57;15.30;48.90
74657;DHT22;63185;45.642;13.764;2023-03-15T14:55:28;15.30;48.70
74657;DHT22;63185;45.642;13.764;2023-03-15T14:57:54;14.90;50.90
74657;DHT22;63185;45.642;13.764;2023-03-15T15:00:20;15.50;50.60
74657;DHT22;63185;45.642;13.764;2023-03-15T15:02:54;16.10;48.60
74657;DHT22;63185;45.642;13.764;2023-03-15T15:05:30;16.00;48.30
74657;DHT22;63185;45.642;13.764;2023-03-15T15:08:03;16.40;48.40
74657;DHT22;63185;45.642;13.764;2023-03-15T15:10:30;16.30;49.10
74657;DHT22;63185;45.642;13.764;2023-03-15T15:12:56;15.60;49.40
74657;DHT22;63185;45.642;13.764;2023-03-15T15:15:22;15.10;52.10
74657;DHT22;63185;45.642;13.764;2023-03-15T15:17:48;15.10;53.60
74657;DHT22;63185;45.642;13.764;2023-03-15T15:20:14;15.10;54.30
74657;DHT22;63185;45.642;13.764;2023-03-15T15:22:41;15.00;55.20
74657;DHT22;63185;45.642;13.764;2023-03-15T15:25:21;14.70;55.20
74657;DHT22;63185;45.642;13.764;2023-03-15T15:27:48;14.60;55.70
74657;DHT22;63185;45.642;13.764;2023-03-15T15:30:19;14.60;54.60
74657;DHT22;63185;45.642;13.764;2023-03-15T15:32:45;14.80;53.40
74657;DHT22;63185;45.642;13.764;2023-03-15T15:35:12;14.80;53.20
74657;DHT22;63185;45.642;13.764;2023-03-15T15:37:40;14.70;54.40
74657;DHT22;63185;45.642;13.764;2023-03-15T15:40:10;14.80;54.80
74657;DHT22;63185;45.642;13.764;2023-03-15T15:42:39;14.80;54.40
74657;DHT22;63185;45.642;13.764;2023-03-15T15:45:09;14.90;54.20
74657;DHT22;63185;45.642;13.764;2023-03-15T15:47:36;14.90;54.60
74657;DHT22;63185;45.642;13.764;2023-03-15T15:50:02;15.40;54.10
74657;DHT22;63185;45.642;13.764;2023-03-15T15:52:28;16.40;50.60
74657;DHT22;63185;45.642;13.764;2023-03-15T15:54:54;17.80;45.60
74657;DHT22;63185;45.642;13.764;2023-03-15T15:57:20;19.10;39.80
74657;DHT22;63185;45.642;13.764;2023-03-15T15:59:46;20.90;35.00
74657;DHT22;63185;45.642;13.764;2023-03-15T16:02:13;22.10;28.20
74657;DHT22;63185;45.642;13.764;2023-03-15T16:04:49;22.30;32.60
74657;DHT22;63185;45.642;13.764;2023-03-15T16:07:15;21.60;35.10
74657;DHT22;63185;45.642;13.764;2023-03-15T16:09:43;20.20;32.80
74657;DHT22;63185;45.642;13.764;2023-03-15T16:12:14;19.60;34.00
74657;DHT22;63185;45.642;13.764;2023-03-15T16:14:41;18.70;32.20
74657;DHT22;63185;45.642;13.764;2023-03-15T16:17:21;17.70;34.70
74657;DHT22;63185;45.642;13.764;2023-03-15T16:19:48;17.60;27.90
74657;DHT22;63185;45.642;13.764;2023-03-15T16:22:14;17.60;28.60
74657;DHT22;63185;45.642;13.764;2023-03-15T16:24:42;17.50;25.00
74657;DHT22;63185;45.642;13.764;2023-03-15T16:27:14;18.00;24.50
74657;DHT22;63185;45.642;13.764;2023-03-15T16:29:45;18.50;20.60
74657;DHT22;63185;45.642;13.764;2023-03-15T16:32:17;18.80;18.50
74657;DHT22;63185;45.642;13.764;2023-03-15T16:34:43;19.20;17.30